Time;durP1;ratioP1;P1;durP2;ratioP2;P2;SDS_P1;SDS_P2;PMS_P1;PMS_P2;Temp;Humidity;BMP_temperature;BMP_pressure;BME280_temperature;BME280_humidity;BME280_pressure;Samples;Min_cycle;Max_cycle;Signal;HPM_P1;HPM_P2
2022/11/26 00:01:48;;;;;;;11.05;2.60;;;6.90;99.90;;;;;;6091893;23;20034;-83
2022/11/26 00:04:14;;;;;;;14.05;2.85;;;6.90;99.90;;;;;;6068359;23;20029;-83
2022/11/26 00:06:43;;;;;;;9.95;2.35;;;6.80;99.90;;;;;;6067371;23;20014;-84
2022/11/26 00:09:21;;;;;;;9.40;2.63;;;6.80;99.90;;;;;;6092297;23;20022;-83
2022/11/26 00:11:47;;;;;;;9.38;2.28;;;7.00;99.90;;;;;;6091993;23;20030;-83
2022/11/26 00:14:15;;;;;;;9.93;2.22;;;6.80;99.90;;;;;;6092951;23;20029;-83
2022/11/26 00:16:41;;;;;;;8.32;2.00;;;7.10;99.90;;;;;;6116479;23;20278;-83
2022/11/26 00:19:07;;;;;;;14.45;2.45;;;6.80;99.90;;;;;;6068469;23;20335;-82
2022/11/26 00:21:36;;;;;;;14.98;2.63;;;6.80;99.90;;;;;;6115161;23;20105;-83
2022/11/26 00:24:03;;;;;;;13.25;2.10;;;6.80;99.90;;;;;;6091640;23;20820;-83
2022/11/26 00:26:29;;;;;;;11.48;2.28;;;6.80;99.90;;;;;;6068026;23;20026;-83
2022/11/26 00:28:56;;;;;;;18.40;2.40;;;6.90;99.90;;;;;;6092160;23;20076;-83
2022/11/26 00:31:23;;;;;;;8.77;2.13;;;6.90;99.90;;;;;;6092204;23;20026;-83
2022/11/26 00:33:48;;;;;;;9.32;2.17;;;8.50;99.90;;;;;;6091432;23;20080;-84
2022/11/26 00:36:19;;;;;;;10.95;2.35;;;6.80;99.90;;;;;;6068382;23;20026;-83
2022/11/26 00:38:48;;;;;;;10.45;2.20;;;5.80;99.90;;;;;;6091680;23;20022;-84
2022/11/26 00:41:17;;;;;;;10.82;2.42;;;6.80;99.90;;;;;;6091880;23;20060;-84
2022/11/26 00:43:44;;;;;;;13.50;2.38;;;6.80;99.90;;;;;;6140201;23;20056;-84
2022/11/26 00:46:15;;;;;;;9.85;1.95;;;6.70;99.90;;;;;;6117436;23;20026;-84
2022/11/26 00:48:41;;;;;;;12.80;2.38;;;6.80;99.90;;;;;;6091911;23;20559;-84
2022/11/26 00:51:16;;;;;;;9.80;1.90;;;6.70;99.90;;;;;;6091264;23;20092;-83
2022/11/26 00:53:44;;;;;;;11.35;1.92;;;6.80;99.90;;;;;;6090960;23;20212;-84
2022/11/26 00:56:20;;;;;;;13.05;2.00;;;6.60;99.90;;;;;;6044171;23;20029;-83
2022/11/26 00:58:47;;;;;;;7.82;2.28;;;6.70;99.90;;;;;;6141300;23;20022;-83
2022/11/26 01:01:18;;;;;;;14.18;3.25;;;6.70;99.90;;;;;;6092129;23;20450;-84
2022/11/26 01:03:44;;;;;;;11.50;2.38;;;6.60;99.90;;;;;;6091757;23;20021;-84
2022/11/26 01:06:19;;;;;;;9.90;2.60;;;6.60;99.90;;;;;;6093424;23;20025;-84
2022/11/26 01:08:45;;;;;;;13.10;2.33;;;6.60;99.90;;;;;;6142697;23;20036;-83
2022/11/26 01:11:21;;;;;;;13.25;2.15;;;6.60;99.90;;;;;;6119507;23;20078;-84
2022/11/26 01:13:48;;;;;;;16.02;2.63;;;6.80;99.90;;;;;;6127288;23;20014;-83
2022/11/26 01:16:25;;;;;;;15.00;2.83;;;6.60;99.90;;;;;;6092166;23;20014;-82
2022/11/26 01:18:53;;;;;;;16.52;2.90;;;6.50;99.90;;;;;;6116785;23;20018;-83
2022/11/26 01:21:19;;;;;;;8.95;2.55;;;6.70;99.90;;;;;;6092168;23;20029;-84
2022/11/26 01:23:46;;;;;;;13.43;2.35;;;6.50;99.90;;;;;;6079345;23;20282;-83
2022/11/26 01:26:21;;;;;;;10.85;2.35;;;6.50;99.90;;;;;;6095478;23;20026;-83
2022/11/26 01:28:48;;;;;;;12.25;2.35;;;5.50;99.90;;;;;;6089895;23;20018;-83
2022/11/26 01:31:20;;;;;;;11.40;2.88;;;7.80;99.90;;;;;;6115240;23;20033;-83
2022/11/26 01:33:46;;;;;;;12.52;2.53;;;6.70;99.90;;;;;;6114661;23;20029;-84
2022/11/26 01:36:21;;;;;;;12.75;2.60;;;6.40;99.90;;;;;;6090968;23;20018;-83
2022/11/26 01:38:47;;;;;;;13.77;2.70;;;6.40;99.90;;;;;;6091061;23;20434;-83
2022/11/26 01:41:26;;;;;;;14.30;2.85;;;6.40;99.90;;;;;;6091059;23;20257;-83
2022/11/26 01:43:55;;;;;;;11.98;2.75;;;6.30;99.90;;;;;;6140010;23;20026;-83
2022/11/26 01:46:25;;;;;;;11.95;2.95;;;6.30;99.90;;;;;;6115836;23;20100;-83
2022/11/26 01:48:52;;;;;;;9.23;2.13;;;6.30;99.90;;;;;;6090972;23;20105;-82
2022/11/26 01:51:26;;;;;;;11.43;2.50;;;6.80;99.90;;;;;;6118501;23;20025;-83
2022/11/26 01:53:58;;;;;;;16.45;2.92;;;6.40;99.90;;;;;;6121884;23;20480;-82
2022/11/26 01:56:58;;;;;;;12.38;2.85;;;6.30;99.90;;;;;;6094002;23;20018;-82
2022/11/26 01:59:29;;;;;;;13.02;2.60;;;6.20;99.90;;;;;;6091148;23;20057;-82
2022/11/26 02:01:57;;;;;;;13.40;2.72;;;6.20;99.90;;;;;;6117245;23;20060;-83
2022/11/26 02:04:28;;;;;;;14.95;2.88;;;6.20;99.90;;;;;;6091121;23;20106;-82
2022/11/26 02:06:55;;;;;;;13.50;2.63;;;6.10;99.90;;;;;;6091796;23;20018;-82
2022/11/26 02:09:23;;;;;;;8.57;2.20;;;6.10;99.90;;;;;;6091377;23;20466;-83
2022/11/26 02:11:49;;;;;;;12.82;3.05;;;6.00;99.90;;;;;;6090157;23;20025;-82
2022/11/26 02:14:47;;;;;;;12.73;2.97;;;6.00;99.90;;;;;;6115724;23;20048;-82
2022/11/26 02:17:13;;;;;;;12.15;3.10;;;5.30;99.90;;;;;;6052561;23;20690;-83
2022/11/26 02:19:58;;;;;;;12.32;2.35;;;5.90;99.90;;;;;;6139892;23;20029;-83
2022/11/26 02:22:33;;;;;;;11.63;2.85;;;5.80;99.90;;;;;;6090354;23;20454;-83
2022/11/26 02:25:19;;;;;;;11.00;2.92;;;5.70;99.90;;;;;;6090974;23;20060;-83
2022/11/26 02:27:45;;;;;;;12.68;3.17;;;5.90;99.90;;;;;;6090392;23;20089;-82
2022/11/26 02:30:13;;;;;;;14.82;2.70;;;5.90;99.90;;;;;;6090533;23;20018;-83
2022/11/26 02:32:53;;;;;;;18.67;2.95;;;6.80;99.90;;;;;;6114755;23;20104;-83
2022/11/26 02:35:32;;;;;;;11.68;2.92;;;4.40;99.90;;;;;;6090954;23;20331;-82
2022/11/26 02:38:15;;;;;;;12.32;2.88;;;5.90;99.90;;;;;;6121254;23;20076;-83
2022/11/26 02:40:41;;;;;;;15.75;3.22;;;5.80;99.90;;;;;;6120449;23;20108;-84
2022/11/26 02:43:07;;;;;;;13.43;3.05;;;6.10;99.90;;;;;;6147092;23;20049;-83
2022/11/26 02:45:43;;;;;;;11.32;2.83;;;5.80;99.90;;;;;;6096835;23;20025;-82
2022/11/26 02:48:15;;;;;;;8.65;2.78;;;5.80;99.90;;;;;;6120971;23;20032;-83
2022/11/26 02:50:52;;;;;;;20.27;3.60;;;6.10;99.90;;;;;;6120362;23;20026;-83
2022/11/26 02:53:21;;;;;;;17.48;3.53;;;6.10;99.90;;;;;;6097154;23;20549;-83
2022/11/26 02:55:53;;;;;;;15.10;2.95;;;5.80;99.90;;;;;;6121255;23;20022;-83
2022/11/26 02:58:19;;;;;;;16.10;3.55;;;5.80;99.90;;;;;;6096444;23;20025;-81
2022/11/26 03:00:47;;;;;;;8.65;2.90;;;5.80;99.90;;;;;;6120176;23;20021;-81
2022/11/26 03:03:47;;;;;;;16.45;3.08;;;7.10;99.90;;;;;;6121802;23;20021;-83
2022/11/26 03:06:15;;;;;;;13.50;2.60;;;5.80;99.90;;;;;;6059461;23;20028;-83
2022/11/26 03:08:44;;;;;;;10.40;2.80;;;5.80;99.90;;;;;;6120637;23;20021;-82
2022/11/26 03:11:10;;;;;;;14.15;3.47;;;7.10;99.90;;;;;;6120710;23;20025;-83
2022/11/26 03:13:35;;;;;;;10.52;2.85;;;5.80;99.90;;;;;;6124680;23;20014;-81
2022/11/26 03:16:01;;;;;;;14.77;2.95;;;5.80;99.90;;;;;;6100392;23;20049;-80
2022/11/26 03:18:27;;;;;;;9.50;2.95;;;6.30;99.90;;;;;;6099827;23;20053;-82
2022/11/26 03:20:53;;;;;;;13.18;3.28;;;6.10;99.90;;;;;;6099627;23;20121;-82
2022/11/26 03:23:18;;;;;;;15.15;3.70;;;5.70;99.90;;;;;;6152405;23;20014;-82
2022/11/26 03:25:44;;;;;;;10.82;3.17;;;5.70;99.90;;;;;;6101346;23;20025;-82
2022/11/26 03:28:10;;;;;;;9.60;2.92;;;5.60;99.90;;;;;;6122529;23;20029;-82
2022/11/26 03:30:36;;;;;;;10.48;2.80;;;5.60;99.90;;;;;;6121686;23;20100;-81
2022/11/26 03:33:02;;;;;;;13.57;3.10;;;5.60;99.90;;;;;;6097541;23;20535;-82
2022/11/26 03:35:28;;;;;;;10.45;2.80;;;5.50;99.90;;;;;;6122046;23;20022;-83
2022/11/26 03:37:53;;;;;;;12.20;3.25;;;5.50;99.90;;;;;;6145927;23;20503;-83
2022/11/26 03:40:19;;;;;;;14.07;3.90;;;5.50;99.90;;;;;;6122270;23;20088;-82
2022/11/26 03:42:45;;;;;;;12.25;3.20;;;5.50;99.90;;;;;;6097939;23;20025;-81
2022/11/26 03:45:11;;;;;;;13.77;3.20;;;5.50;99.90;;;;;;6122031;23;20030;-83
2022/11/26 03:47:38;;;;;;;12.75;3.72;;;5.80;99.90;;;;;;6098392;23;20113;-83
2022/11/26 03:50:05;;;;;;;14.95;3.03;;;5.40;99.90;;;;;;6097472;23;20053;-83
2022/11/26 03:52:31;;;;;;;12.98;3.35;;;5.40;99.90;;;;;;6097767;23;20090;-82
2022/11/26 03:54:57;;;;;;;12.55;3.30;;;5.40;99.90;;;;;;6121183;23;20017;-81
2022/11/26 03:57:22;;;;;;;15.07;3.08;;;6.00;99.90;;;;;;6096689;23;20018;-82
2022/11/26 03:59:48;;;;;;;12.63;3.50;;;5.30;99.90;;;;;;6121207;23;20021;-82
2022/11/26 04:02:14;;;;;;;13.60;3.58;;;5.30;99.90;;;;;;6122206;23;20222;-82
2022/11/26 04:04:40;;;;;;;13.02;3.30;;;6.60;99.90;;;;;;6122069;23;20531;-82
2022/11/26 04:07:06;;;;;;;11.40;2.88;;;5.80;99.90;;;;;;6097627;23;20017;-83
2022/11/26 04:09:31;;;;;;;10.52;3.08;;;5.30;99.90;;;;;;6146155;23;20075;-83
2022/11/26 04:11:57;;;;;;;12.23;3.03;;;5.40;99.90;;;;;;6120998;23;20080;-82
2022/11/26 04:14:23;;;;;;;12.48;3.47;;;5.40;99.90;;;;;;6097647;23;20536;-83
2022/11/26 04:16:49;;;;;;;13.80;2.90;;;5.40;99.90;;;;;;6097102;23;20446;-82
2022/11/26 04:19:14;;;;;;;11.35;3.33;;;5.40;99.90;;;;;;6097689;23;20029;-82
2022/11/26 04:21:40;;;;;;;15.73;3.88;;;5.40;99.90;;;;;;6145169;23;20026;-82
2022/11/26 04:24:06;;;;;;;17.02;4.22;;;5.40;99.90;;;;;;6097313;23;20112;-83
2022/11/26 04:26:32;;;;;;;15.70;3.88;;;5.40;99.90;;;;;;6122019;23;20018;-83
2022/11/26 04:28:58;;;;;;;17.80;3.92;;;6.10;99.90;;;;;;6144968;23;20838;-82
2022/11/26 04:31:24;;;;;;;9.88;3.03;;;5.50;99.90;;;;;;6145164;23;20028;-83
2022/11/26 04:33:49;;;;;;;14.95;3.80;;;5.50;99.90;;;;;;6095841;23;20021;-83
2022/11/26 04:36:15;;;;;;;13.73;3.25;;;5.50;99.90;;;;;;6120546;23;20018;-83
2022/11/26 04:38:41;;;;;;;19.80;4.28;;;5.50;99.90;;;;;;6096625;23;20512;-82
2022/11/26 04:41:07;;;;;;;20.65;3.75;;;5.40;99.90;;;;;;6096769;23;20460;-83
2022/11/26 04:43:33;;;;;;;14.43;3.40;;;5.50;99.90;;;;;;6096795;23;20100;-82
2022/11/26 04:45:58;;;;;;;13.82;3.33;;;5.50;99.90;;;;;;6073000;23;20033;-82
2022/11/26 04:48:24;;;;;;;17.20;3.67;;;5.50;99.90;;;;;;6097120;23;20457;-83
2022/11/26 04:50:50;;;;;;;16.10;4.03;;;5.50;99.90;;;;;;6071425;23;20128;-83
2022/11/26 04:53:20;;;;;;;15.10;4.10;;;6.80;99.90;;;;;;6121394;23;20035;-80
2022/11/26 04:55:48;;;;;;;13.93;4.00;;;5.60;99.90;;;;;;6120280;23;20399;-82
2022/11/26 04:58:14;;;;;;;14.73;4.60;;;5.60;99.90;;;;;;6096414;23;20029;-83
2022/11/26 05:00:40;;;;;;;14.02;3.80;;;5.60;99.90;;;;;;6096590;23;20025;-83
2022/11/26 05:03:06;;;;;;;13.30;3.38;;;5.70;99.90;;;;;;6072119;23;20044;-81
2022/11/26 05:05:31;;;;;;;8.88;3.28;;;5.70;99.90;;;;;;6096975;23;20057;-83
2022/11/26 05:07:57;;;;;;;20.65;4.60;;;5.70;99.90;;;;;;6096245;23;20021;-83
2022/11/26 05:10:23;;;;;;;14.38;3.95;;;5.80;99.90;;;;;;6071591;23;20022;-83
2022/11/26 05:12:48;;;;;;;15.20;3.67;;;5.70;99.90;;;;;;6071393;23;20113;-85
2022/11/26 05:15:14;;;;;;;16.60;4.20;;;6.60;99.90;;;;;;6096739;23;20021;-83
2022/11/26 05:17:40;;;;;;;16.90;3.97;;;5.70;99.90;;;;;;6096292;23;20167;-83
2022/11/26 05:20:06;;;;;;;13.73;3.47;;;5.90;99.90;;;;;;6095532;23;20018;-82
2022/11/26 05:22:32;;;;;;;15.07;4.05;;;5.70;99.90;;;;;;6121797;23;20337;-83
2022/11/26 05:24:58;;;;;;;14.13;3.80;;;5.70;99.90;;;;;;6072457;23;20021;-83
2022/11/26 05:27:23;;;;;;;13.25;3.63;;;5.70;99.90;;;;;;6072234;23;20513;-83
2022/11/26 05:29:49;;;;;;;17.05;4.43;;;5.70;99.90;;;;;;6095969;23;20496;-83
2022/11/26 05:32:15;;;;;;;13.50;3.63;;;6.00;99.90;;;;;;6096380;23;20021;-83
2022/11/26 05:34:41;;;;;;;19.77;3.67;;;5.70;99.90;;;;;;6072563;23;20026;-83
2022/11/26 05:37:06;;;;;;;14.63;3.95;;;5.80;99.90;;;;;;6071472;23;20087;-82
2022/11/26 05:39:32;;;;;;;14.63;4.53;;;5.80;99.90;;;;;;6072336;23;20028;-83
2022/11/26 05:41:58;;;;;;;18.40;4.20;;;5.80;99.90;;;;;;6120596;23;20385;-83
2022/11/26 05:44:24;;;;;;;16.58;4.35;;;5.80;99.90;;;;;;6048676;23;20025;-83
2022/11/26 05:46:50;;;;;;;16.35;3.90;;;5.80;99.90;;;;;;6096383;23;20390;-83
2022/11/26 05:49:15;;;;;;;17.33;4.10;;;5.80;99.90;;;;;;6120557;23;20025;-82
2022/11/26 05:51:41;;;;;;;19.38;4.60;;;5.70;99.90;;;;;;6047859;23;20032;-83
2022/11/26 05:54:13;;;;;;;12.82;3.83;;;6.70;99.90;;;;;;6071993;23;20295;-83
2022/11/26 05:56:39;;;;;;;17.02;3.83;;;5.70;99.90;;;;;;6120496;23;20104;-83
2022/11/26 05:59:04;;;;;;;16.20;4.35;;;6.10;99.90;;;;;;6095900;23;20025;-82
2022/11/26 06:01:30;;;;;;;15.75;4.00;;;5.70;99.90;;;;;;6095695;23;20028;-82
2022/11/26 06:03:56;;;;;;;14.38;3.92;;;5.60;99.90;;;;;;6096358;23;20021;-82
2022/11/26 06:06:22;;;;;;;14.43;3.70;;;5.60;99.90;;;;;;6096623;23;20088;-82
2022/11/26 06:08:47;;;;;;;13.88;3.85;;;5.60;99.90;;;;;;6072368;23;20051;-82
2022/11/26 06:11:13;;;;;;;14.70;4.38;;;5.60;99.90;;;;;;6047701;23;20026;-83
2022/11/26 06:13:39;;;;;;;14.82;3.97;;;5.50;99.90;;;;;;6071420;23;20025;-84
2022/11/26 06:16:05;;;;;;;11.38;3.22;;;5.50;99.90;;;;;;6071517;23;20028;-83
2022/11/26 06:18:31;;;;;;;11.32;3.60;;;5.50;99.90;;;;;;6095607;23;20029;-82
2022/11/26 06:21:01;;;;;;;11.63;3.65;;;6.30;99.90;;;;;;6046925;23;20025;-84
2022/11/26 06:23:27;;;;;;;19.08;3.70;;;5.40;99.90;;;;;;6095352;23;20031;-83
2022/11/26 06:25:53;;;;;;;15.45;3.83;;;6.00;99.90;;;;;;6070111;23;20117;-82
2022/11/26 06:28:18;;;;;;;19.88;4.47;;;5.40;99.90;;;;;;6071806;23;20105;-81
2022/11/26 06:30:45;;;;;;;14.52;3.97;;;5.40;99.90;;;;;;6118545;23;20014;-84
2022/11/26 06:33:11;;;;;;;16.00;3.95;;;6.00;99.90;;;;;;6096004;23;20116;-84
2022/11/26 06:35:36;;;;;;;14.93;3.97;;;5.50;99.90;;;;;;6094733;23;20379;-86
2022/11/26 06:38:02;;;;;;;17.52;4.53;;;5.40;99.90;;;;;;6071376;23;20555;-85
2022/11/26 06:40:28;;;;;;;12.00;3.70;;;5.50;99.90;;;;;;6095256;23;20393;-83
2022/11/26 06:42:54;;;;;;;12.20;3.75;;;6.10;99.90;;;;;;6095334;23;20025;-82
2022/11/26 06:45:21;;;;;;;17.35;4.05;;;5.50;99.90;;;;;;6096780;23;20018;-84
2022/11/26 06:47:49;;;;;;;15.13;4.15;;;5.50;99.90;;;;;;6098105;23;20517;-83
2022/11/26 06:50:21;;;;;;;17.67;4.13;;;5.90;99.90;;;;;;6122007;23;20057;-82
2022/11/26 06:52:51;;;;;;;21.15;4.32;;;5.50;99.90;;;;;;6098857;23;20028;-83
2022/11/26 06:55:18;;;;;;;12.40;3.97;;;5.50;99.90;;;;;;6098390;23;20087;-83
2022/11/26 06:57:44;;;;;;;16.02;3.97;;;4.40;99.90;;;;;;6100377;23;20020;-84
2022/11/26 07:00:10;;;;;;;12.77;4.53;;;6.40;99.90;;;;;;6098265;23;20100;-83
2022/11/26 07:02:37;;;;;;;17.42;3.92;;;5.50;99.90;;;;;;6101521;23;20029;-84
2022/11/26 07:05:03;;;;;;;11.65;3.53;;;5.50;99.90;;;;;;6090123;23;20043;-85
2022/11/26 07:07:28;;;;;;;13.43;3.78;;;5.50;99.90;;;;;;6076383;23;20017;-84
2022/11/26 07:09:54;;;;;;;14.77;4.15;;;5.60;99.90;;;;;;6096919;23;20025;-83
2022/11/26 07:12:20;;;;;;;11.95;3.72;;;5.60;99.90;;;;;;6049571;23;20024;-84
2022/11/26 07:14:45;;;;;;;15.40;4.07;;;5.60;99.90;;;;;;6049996;23;20033;-84
2022/11/26 07:17:11;;;;;;;12.70;3.40;;;6.50;99.90;;;;;;6096561;23;20084;-84
2022/11/26 07:19:37;;;;;;;10.35;3.55;;;5.60;99.90;;;;;;6096477;23;20055;-85
2022/11/26 07:22:02;;;;;;;19.17;3.40;;;5.60;99.90;;;;;;6072377;23;20022;-83
2022/11/26 07:24:28;;;;;;;13.13;3.67;;;5.60;99.90;;;;;;6096507;23;20388;-84
2022/11/26 07:26:55;;;;;;;17.52;3.78;;;5.60;99.90;;;;;;6073796;23;20017;-83
2022/11/26 07:29:21;;;;;;;17.52;4.03;;;5.60;99.90;;;;;;6097236;23;20053;-84
2022/11/26 07:31:46;;;;;;;13.23;3.63;;;5.60;99.90;;;;;;6121495;23;20052;-84
2022/11/26 07:34:12;;;;;;;11.27;3.67;;;6.20;99.90;;;;;;6121726;23;20025;-84
2022/11/26 07:36:41;;;;;;;10.05;3.50;;;5.50;99.90;;;;;;6073085;23;20022;-84
2022/11/26 07:39:09;;;;;;;13.68;3.70;;;5.00;99.90;;;;;;6050954;23;20032;-85
2022/11/26 07:41:35;;;;;;;11.80;3.10;;;5.50;99.90;;;;;;6120970;23;20516;-84
2022/11/26 07:44:00;;;;;;;10.45;3.00;;;5.60;99.90;;;;;;6097329;23;20098;-84
2022/11/26 07:46:26;;;;;;;13.77;3.70;;;5.60;99.90;;;;;;6074053;23;20100;-83
2022/11/26 07:48:54;;;;;;;11.70;3.17;;;6.00;99.90;;;;;;6097647;23;20103;-84
2022/11/26 07:51:24;;;;;;;15.55;3.85;;;5.70;99.90;;;;;;6096398;23;20457;-84
2022/11/26 07:53:51;;;;;;;12.25;3.67;;;6.00;99.90;;;;;;6097680;23;20472;-84
2022/11/26 07:56:18;;;;;;;13.20;3.67;;;5.70;99.90;;;;;;6096949;23;20124;-85
2022/11/26 07:58:44;;;;;;;11.18;3.45;;;5.80;99.90;;;;;;6098653;23;20024;-83
2022/11/26 08:01:12;;;;;;;12.90;4.50;;;5.80;99.90;;;;;;6095938;23;20032;-83
2022/11/26 08:03:40;;;;;;;10.52;3.72;;;5.80;99.90;;;;;;6097050;23;20027;-84
2022/11/26 08:06:11;;;;;;;20.35;4.82;;;5.80;99.90;;;;;;6096773;23;20013;-85
2022/11/26 08:08:37;;;;;;;17.95;4.97;;;5.90;99.90;;;;;;6123614;23;20029;-84
2022/11/26 08:11:10;;;;;;;14.63;4.40;;;5.90;99.90;;;;;;6097263;23;20021;-85
2022/11/26 08:13:35;;;;;;;10.10;4.03;;;5.90;99.90;;;;;;6099199;23;20017;-85
2022/11/26 08:16:01;;;;;;;21.23;4.88;;;6.00;99.90;;;;;;6121738;23;20100;-84
2022/11/26 08:18:27;;;;;;;13.90;4.63;;;6.00;99.90;;;;;;6074401;23;20025;-82
2022/11/26 08:20:57;;;;;;;17.55;4.63;;;6.00;99.90;;;;;;6073231;23;20017;-87
2022/11/26 08:23:24;;;;;;;19.20;5.75;;;6.10;99.90;;;;;;6097508;23;20017;-83
2022/11/26 08:25:51;;;;;;;13.38;4.40;;;6.30;99.90;;;;;;6098104;23;20064;-83
2022/11/26 08:28:17;;;;;;;13.98;4.45;;;6.30;99.90;;;;;;6096968;23;20028;-83
2022/11/26 08:30:58;;;;;;;17.27;5.15;;;6.40;99.90;;;;;;6097577;23;20032;-83
2022/11/26 08:33:38;;;;;;;15.93;5.38;;;6.60;99.90;;;;;;6077920;23;20080;-82
2022/11/26 08:36:05;;;;;;;21.15;5.22;;;7.00;99.90;;;;;;6074516;23;20017;-83
2022/11/26 08:38:31;;;;;;;15.38;5.80;;;6.60;99.90;;;;;;6097294;23;20043;-83
2022/11/26 08:41:01;;;;;;;19.05;5.63;;;6.90;99.90;;;;;;6096873;23;20021;-83
2022/11/26 08:43:27;;;;;;;15.05;5.55;;;6.80;99.90;;;;;;6098021;23;20028;-79
2022/11/26 08:45:57;;;;;;;15.75;5.47;;;6.80;99.90;;;;;;6072893;23;20104;-83
2022/11/26 08:48:26;;;;;;;14.38;5.22;;;6.90;99.90;;;;;;6120935;23;20017;-83
2022/11/26 08:51:00;;;;;;;19.58;5.68;;;7.00;99.90;;;;;;6096976;23;20084;-89
2022/11/26 08:53:27;;;;;;;18.10;5.22;;;6.90;99.90;;;;;;6112480;23;20021;-92
2022/11/26 08:56:02;;;;;;;17.55;5.30;;;6.90;99.90;;;;;;6138775;23;20021;-93
2022/11/26 08:58:28;;;;;;;15.25;5.03;;;7.70;99.90;;;;;;6137440;23;20119;-89
2022/11/26 09:01:11;;;;;;;18.20;5.63;;;5.60;99.90;;;;;;6091367;23;20025;-90
2022/11/26 09:03:46;;;;;;;11.73;4.30;;;7.00;99.90;;;;;;6086798;23;20017;-91
2022/11/26 09:06:18;;;;;;;14.98;5.35;;;6.80;99.90;;;;;;6084798;23;20053;-90
2022/11/26 09:09:11;;;;;;;13.00;5.30;;;7.20;99.90;;;;;;6105437;23;20016;-91
2022/11/26 09:11:35;;;;;;;15.57;5.80;;;7.20;99.90;;;;;;6154608;23;20029;-91
2022/11/26 09:14:04;;;;;;;15.05;5.10;;;7.10;99.90;;;;;;6105223;23;20027;-89
2022/11/26 09:16:30;;;;;;;23.42;5.57;;;7.20;99.90;;;;;;6102653;23;20024;-95
2022/11/26 09:18:59;;;;;;;24.75;6.50;;;7.20;99.90;;;;;;6105374;23;20009;-92
2022/11/26 09:21:25;;;;;;;16.42;5.18;;;7.30;99.90;;;;;;6107354;23;20025;-91
2022/11/26 09:23:51;;;;;;;17.13;5.50;;;7.20;99.90;;;;;;6111523;23;20039;-90
2022/11/26 09:26:20;;;;;;;23.33;6.40;;;7.40;99.90;;;;;;6114395;23;20052;-89
2022/11/26 09:28:47;;;;;;;23.45;6.00;;;7.40;99.90;;;;;;6138479;23;20021;-90
2022/11/26 09:31:13;;;;;;;21.10;6.32;;;7.30;99.90;;;;;;6116377;23;20033;-84
2022/11/26 09:34:00;;;;;;;22.15;6.28;;;7.40;99.90;;;;;;6084135;23;20032;-91
2022/11/26 09:36:26;;;;;;;16.10;5.93;;;7.50;99.90;;;;;;6105760;23;20385;-93
2022/11/26 09:38:53;;;;;;;16.02;6.47;;;7.50;99.90;;;;;;6082695;23;20033;-93
2022/11/26 09:41:28;;;;;;;18.20;6.45;;;7.60;99.90;;;;;;6109622;23;20345;-93
2022/11/26 09:44:13;;;;;;;21.52;6.45;;;7.50;99.90;;;;;;6111767;23;20520;-93
2022/11/26 09:47:04;;;;;;;20.70;6.60;;;7.60;99.90;;;;;;6112580;23;20164;-92
2022/11/26 09:49:48;;;;;;;17.58;6.57;;;7.60;99.90;;;;;;6114495;23;20131;-92
2022/11/26 09:52:18;;;;;;;14.43;6.78;;;7.00;99.90;;;;;;6110189;23;20032;-90
2022/11/26 09:54:45;;;;;;;22.77;7.35;;;7.80;99.90;;;;;;6109887;23;20084;-92
2022/11/26 09:57:25;;;;;;;19.48;6.95;;;7.80;99.90;;;;;;6110970;23;20028;-94
2022/11/26 09:59:52;;;;;;;17.85;7.00;;;8.00;99.90;;;;;;6107755;23;20032;-92
2022/11/26 10:02:27;;;;;;;21.00;7.40;;;9.50;99.90;;;;;;6131876;23;20438;-94
2022/11/26 10:04:53;;;;;;;16.13;7.40;;;8.10;99.90;;;;;;6084797;23;20349;-92
2022/11/26 10:07:40;;;;;;;19.65;7.45;;;7.90;99.90;;;;;;6084699;23;20024;-94
2022/11/26 10:10:30;;;;;;;28.17;7.75;;;7.90;99.90;;;;;;6132766;23;20053;-91
2022/11/26 10:13:23;;;;;;;22.55;7.90;;;7.30;99.90;;;;;;6133728;23;20093;-91
2022/11/26 10:16:19;;;;;;;16.77;7.70;;;8.00;99.90;;;;;;6108373;23;20021;-95
2022/11/26 10:19:23;;;;;;;20.48;8.75;;;8.10;99.90;;;;;;6131811;23;20021;-92
2022/11/26 10:21:53;;;;;;;23.52;8.43;;;8.10;99.90;;;;;;6108914;23;20022;-91
2022/11/26 10:24:31;;;;;;;20.33;8.48;;;8.10;99.90;;;;;;6109778;23;20029;-93
2022/11/26 10:27:02;;;;;;;20.17;8.23;;;8.30;99.90;;;;;;6108729;23;20370;-90
2022/11/26 10:29:39;;;;;;;16.83;8.48;;;8.20;99.90;;;;;;6108498;23;20206;-91
2022/11/26 10:32:20;;;;;;;22.27;8.25;;;10.20;99.90;;;;;;6112522;23;20025;-90
2022/11/26 10:34:57;;;;;;;18.75;8.98;;;8.40;99.90;;;;;;6128531;23;20016;-91
2022/11/26 10:37:28;;;;;;;25.08;8.77;;;8.20;99.90;;;;;;6129040;23;20036;-89
2022/11/26 10:40:20;;;;;;;20.17;8.90;;;8.40;99.90;;;;;;6129780;23;20226;-91
2022/11/26 10:43:04;;;;;;;18.38;8.30;;;8.40;99.90;;;;;;6122369;23;20053;-91
2022/11/26 10:45:46;;;;;;;20.77;8.18;;;7.90;99.90;;;;;;6117994;23;20480;-86
2022/11/26 10:48:32;;;;;;;21.50;8.40;;;8.50;99.90;;;;;;6115463;23;20021;-86
2022/11/26 10:51:15;;;;;;;19.30;8.30;;;8.60;99.90;;;;;;6111313;23;20069;-89
2022/11/26 10:54:06;;;;;;;18.20;9.30;;;8.50;99.90;;;;;;6134357;23;20263;-92
2022/11/26 10:56:54;;;;;;;21.38;8.52;;;8.60;99.90;;;;;;6106227;23;20723;-87
2022/11/26 10:59:29;;;;;;;23.33;7.93;;;8.60;99.90;;;;;;6084102;23;20045;-89
2022/11/26 11:02:12;;;;;;;21.13;8.60;;;8.60;99.90;;;;;;6106315;23;20028;-90
2022/11/26 11:04:42;;;;;;;24.60;9.40;;;8.70;99.90;;;;;;6106469;23;20025;-89
2022/11/26 11:07:40;;;;;;;24.63;9.45;;;8.70;99.90;;;;;;6131416;23;20133;-87
2022/11/26 11:10:08;;;;;;;28.38;10.10;;;8.70;99.90;;;;;;6109276;23;20121;-87
2022/11/26 11:12:46;;;;;;;28.70;10.10;;;8.80;99.90;;;;;;6125620;23;20060;-89
2022/11/26 11:15:23;;;;;;;22.42;9.70;;;9.10;99.90;;;;;;6127065;23;20022;-88
2022/11/26 11:18:02;;;;;;;20.42;9.15;;;8.90;99.90;;;;;;6126203;23;20013;-88
2022/11/26 11:20:55;;;;;;;28.15;9.07;;;9.00;99.90;;;;;;6125259;23;20024;-90
2022/11/26 11:23:25;;;;;;;23.17;9.57;;;9.20;99.90;;;;;;6097018;23;20076;-86
2022/11/26 11:26:14;;;;;;;25.00;9.65;;;9.00;99.90;;;;;;6095870;23;20121;-92
2022/11/26 11:28:47;;;;;;;22.58;9.25;;;9.10;99.90;;;;;;6154392;23;20033;-90
2022/11/26 11:31:16;;;;;;;22.23;8.88;;;9.00;99.90;;;;;;6104069;23;20053;-89
2022/11/26 11:33:42;;;;;;;23.35;9.20;;;9.00;99.90;;;;;;6105079;23;20036;-92
2022/11/26 11:36:14;;;;;;;21.23;9.82;;;9.20;99.90;;;;;;6083555;23;20020;-92
2022/11/26 11:38:48;;;;;;;23.08;9.02;;;9.10;99.90;;;;;;6102833;23;20028;-90
2022/11/26 11:41:31;;;;;;;22.98;8.85;;;9.20;99.90;;;;;;6124008;23;20130;-87
2022/11/26 11:44:06;;;;;;;24.70;9.63;;;9.20;99.90;;;;;;6097504;23;20022;-88
2022/11/26 11:47:09;;;;;;;26.50;9.82;;;9.20;99.90;;;;;;6104203;23;20021;-91
2022/11/26 11:49:56;;;;;;;23.13;9.10;;;9.20;99.90;;;;;;6105662;23;20330;-90
2022/11/26 11:52:48;;;;;;;18.88;9.85;;;9.20;99.90;;;;;;6132108;23;20035;-93
2022/11/26 11:55:26;;;;;;;20.25;9.13;;;9.20;99.90;;;;;;6107138;23;20025;-89
2022/11/26 11:58:10;;;;;;;20.15;9.48;;;7.80;99.90;;;;;;6106616;23;20121;-90
2022/11/26 12:00:49;;;;;;;23.02;9.70;;;9.10;99.90;;;;;;6103520;23;20021;-91
2022/11/26 12:03:56;;;;;;;21.20;9.40;;;9.20;99.90;;;;;;6125561;23;20028;-87
2022/11/26 12:06:39;;;;;;;20.92;8.88;;;9.10;99.90;;;;;;5987270;23;20027;-91
2022/11/26 12:09:23;;;;;;;25.27;10.00;;;9.30;99.90;;;;;;6092539;23;20038;-91
2022/11/26 12:12:25;;;;;;;18.70;9.60;;;9.10;99.90;;;;;;6128367;23;20532;-90
2022/11/26 12:15:10;;;;;;;21.15;10.13;;;9.00;99.90;;;;;;6101219;23;20100;-89
2022/11/26 12:18:04;;;;;;;27.08;10.15;;;9.20;99.90;;;;;;6104703;23;20426;-90
2022/11/26 12:20:48;;;;;;;26.38;9.40;;;9.10;99.90;;;;;;6099437;23;20026;-91
2022/11/26 12:23:24;;;;;;;20.50;9.85;;;9.40;99.90;;;;;;6104623;23;20101;-91
2022/11/26 12:25:55;;;;;;;22.38;9.73;;;9.20;99.90;;;;;;6109801;23;20450;-92
2022/11/26 12:28:33;;;;;;;20.30;9.57;;;9.20;99.90;;;;;;6108467;23;20104;-93
2022/11/26 12:31:21;;;;;;;22.05;10.55;;;9.50;99.90;;;;;;6159837;23;20026;-92
2022/11/26 12:33:55;;;;;;;19.90;9.23;;;9.30;99.90;;;;;;6105822;23;20022;-93
2022/11/26 12:36:37;;;;;;;24.92;9.90;;;9.20;99.90;;;;;;6128184;23;20015;-91
2022/11/26 12:39:17;;;;;;;21.70;9.35;;;9.30;99.90;;;;;;6106528;23;20596;-92
2022/11/26 12:42:22;;;;;;;22.73;9.02;;;9.40;99.90;;;;;;6106167;23;20032;-91
2022/11/26 12:44:50;;;;;;;21.38;9.50;;;9.20;99.90;;;;;;5991259;23;20546;-91
2022/11/26 12:47:42;;;;;;;18.90;9.40;;;9.20;99.90;;;;;;6083131;23;20014;-91
2022/11/26 12:50:19;;;;;;;20.13;9.25;;;9.50;99.90;;;;;;6103441;23;20120;-88
2022/11/26 12:52:51;;;;;;;23.73;9.80;;;9.40;99.90;;;;;;6105149;23;20017;-89
2022/11/26 12:55:17;;;;;;;21.25;9.50;;;9.60;99.90;;;;;;6103001;23;20497;-90
2022/11/26 12:57:59;;;;;;;20.88;9.20;;;9.80;99.90;;;;;;6103509;23;20036;-88
2022/11/26 13:00:28;;;;;;;20.10;10.00;;;9.20;99.90;;;;;;6102653;23;20032;-90
2022/11/26 13:02:54;;;;;;;19.40;8.63;;;9.40;99.90;;;;;;6106778;23;20022;-93
2022/11/26 13:05:58;;;;;;;24.08;9.43;;;9.30;99.90;;;;;;6126656;23;20417;-90
2022/11/26 13:08:29;;;;;;;26.60;10.23;;;9.40;99.90;;;;;;6102477;23;20117;-90
2022/11/26 13:11:09;;;;;;;24.55;9.32;;;9.20;99.90;;;;;;6102352;23;20265;-89